createdAt,value
2023-09-03T00:00:03.693Z,91.16
2023-09-03T00:02:40.041Z,91.05
2023-09-03T00:05:09.005Z,90.83
2023-09-03T00:07:37.019Z,90.35
2023-09-03T00:10:05.301Z,90.67
2023-09-03T00:12:32.259Z,90.95
2023-09-03T00:15:00.433Z,90.47
2023-09-03T00:17:28.318Z,90.80
2023-09-03T00:19:57.684Z,91.01
2023-09-03T00:22:25.566Z,90.51
2023-09-03T00:24:53.485Z,91.65
2023-09-03T00:27:21.786Z,91.92
2023-09-03T00:29:49.662Z,91.15
2023-09-03T00:32:17.580Z,91.16
2023-09-03T00:34:46.979Z,91.52
2023-09-03T00:37:16.221Z,91.23
2023-09-03T00:39:44.484Z,91.10
2023-09-03T00:42:12.473Z,91.54
2023-09-03T00:44:40.315Z,90.97
2023-09-03T00:47:08.494Z,91.54
2023-09-03T00:49:43.956Z,91.39
2023-09-03T00:52:12.738Z,91.27
2023-09-03T00:54:43.215Z,91.83
2023-09-03T00:57:11.147Z,92.24
2023-09-03T00:59:41.207Z,92.11
2023-09-03T01:02:10.456Z,92.16
2023-09-03T01:04:38.461Z,92.32
2023-09-03T01:07:06.332Z,91.69
2023-09-03T01:09:34.164Z,91.23
2023-09-03T01:12:12.043Z,91.30
2023-09-03T01:14:44.315Z,91.73
2023-09-03T01:17:19.179Z,92.35
2023-09-03T01:20:01.542Z,91.63
2023-09-03T01:22:39.787Z,92.03
2023-09-03T01:25:26.224Z,92.52
2023-09-03T01:28:06.226Z,92.36
2023-09-03T01:30:36.248Z,92.54
2023-09-03T01:33:06.934Z,92.17
2023-09-03T01:35:35.702Z,91.77
2023-09-03T01:38:03.568Z,91.76
2023-09-03T01:40:31.893Z,91.80
2023-09-03T01:42:59.874Z,91.81
2023-09-03T01:45:36.265Z,92.08
2023-09-03T01:48:16.632Z,91.71
2023-09-03T01:50:48.597Z,91.64
2023-09-03T01:53:24.090Z,92.12
2023-09-03T01:55:58.480Z,91.98
2023-09-03T01:58:32.217Z,91.93
2023-09-03T02:01:03.553Z,91.56
2023-09-03T02:03:33.457Z,92.20
2023-09-03T02:06:01.382Z,92.02
2023-09-03T02:08:29.216Z,91.89
2023-09-03T02:10:57.228Z,92.04
2023-09-03T02:13:26.169Z,92.56
2023-09-03T02:15:54.022Z,92.33
2023-09-03T02:18:22.042Z,92.85
2023-09-03T02:20:52.023Z,92.38
2023-09-03T02:23:19.993Z,92.25
2023-09-03T02:25:47.851Z,91.92
2023-09-03T02:28:15.758Z,92.06
2023-09-03T02:30:43.651Z,92.00
2023-09-03T02:33:13.115Z,91.79
2023-09-03T02:35:40.973Z,91.78
2023-09-03T02:38:10.208Z,92.25
2023-09-03T02:40:38.236Z,91.23
2023-09-03T02:43:06.281Z,91.53
2023-09-03T02:45:34.169Z,92.21
2023-09-03T02:48:02.006Z,92.13
2023-09-03T02:50:30.135Z,91.71
2023-09-03T02:52:58.353Z,92.29
2023-09-03T02:55:27.684Z,92.20
2023-09-03T02:57:55.593Z,91.91
2023-09-03T03:00:24.374Z,91.79
2023-09-03T03:02:53.356Z,91.82
2023-09-03T03:05:21.271Z,91.23
2023-09-03T03:07:49.120Z,91.37
2023-09-03T03:10:16.989Z,91.45
2023-09-03T03:12:47.526Z,91.18
2023-09-03T03:15:18.032Z,91.71
2023-09-03T03:17:46.117Z,91.93
2023-09-03T03:20:14.983Z,92.38
2023-09-03T03:22:42.911Z,92.39
2023-09-03T03:25:11.747Z,92.37
2023-09-03T03:27:39.764Z,92.28
2023-09-03T03:30:10.775Z,91.95
2023-09-03T03:32:39.555Z,92.28
2023-09-03T03:35:08.251Z,92.70
2023-09-03T03:37:36.133Z,92.59
2023-09-03T03:40:07.220Z,92.29
2023-09-03T03:42:35.180Z,92.25
2023-09-03T03:45:03.968Z,92.81
2023-09-03T03:47:34.453Z,92.80
2023-09-03T03:50:02.376Z,92.61
2023-09-03T03:52:30.274Z,93.47
2023-09-03T03:54:58.274Z,93.41
2023-09-03T03:57:26.114Z,93.30
2023-09-03T03:59:54.346Z,93.13
2023-09-03T04:02:22.167Z,93.24
2023-09-03T04:04:54.497Z,92.75
2023-09-03T04:07:22.426Z,93.49
2023-09-03T04:09:50.334Z,93.40
2023-09-03T04:12:18.209Z,94.03
2023-09-03T04:14:47.566Z,93.40
2023-09-03T04:17:15.404Z,93.25
2023-09-03T04:19:48.153Z,93.10
2023-09-03T04:22:17.698Z,92.88
2023-09-03T04:24:45.729Z,92.97
2023-09-03T04:27:14.527Z,92.99
2023-09-03T04:29:42.552Z,93.42
2023-09-03T04:32:10.665Z,93.53
2023-09-03T04:34:38.565Z,93.67
2023-09-03T04:37:06.477Z,93.24
2023-09-03T04:39:36.713Z,93.14
2023-09-03T04:42:05.811Z,93.38
2023-09-03T04:44:33.820Z,93.98
2023-09-03T04:47:01.776Z,93.58
2023-09-03T04:49:31.181Z,93.29
2023-09-03T04:51:59.129Z,92.88
2023-09-03T04:54:27.631Z,92.88
2023-09-03T04:56:57.056Z,92.99
2023-09-03T04:59:24.967Z,93.24
2023-09-03T05:01:53.212Z,93.34
2023-09-03T05:04:21.124Z,92.95
2023-09-03T05:06:50.203Z,93.70
2023-09-03T05:09:21.072Z,93.34
2023-09-03T05:11:48.952Z,93.68
2023-09-03T05:14:19.859Z,93.93
2023-09-03T05:16:47.968Z,93.64
2023-09-03T05:19:16.705Z,94.04
2023-09-03T05:21:44.704Z,94.41
2023-09-03T05:24:12.886Z,94.25
2023-09-03T05:26:41.020Z,94.68
2023-09-03T05:29:09.207Z,95.03
2023-09-03T05:31:39.096Z,94.95
2023-09-03T05:34:07.065Z,94.63
2023-09-03T05:36:35.036Z,94.28
2023-09-03T05:39:03.576Z,94.11
2023-09-03T05:41:32.588Z,94.26
2023-09-03T05:44:07.089Z,94.33
2023-09-03T05:46:35.621Z,94.36
2023-09-03T05:49:05.121Z,94.68
2023-09-03T05:51:33.329Z,94.83
2023-09-03T05:54:01.247Z,94.61
2023-09-03T05:56:29.143Z,94.15
2023-09-03T05:59:03.585Z,94.33
2023-09-03T06:01:31.693Z,94.21
2023-09-03T06:04:02.982Z,93.97
2023-09-03T06:06:37.184Z,94.22
2023-09-03T06:09:06.464Z,94.06
2023-09-03T06:11:34.356Z,94.56
2023-09-03T06:14:02.502Z,94.70
2023-09-03T06:16:30.739Z,94.54
2023-09-03T06:18:58.582Z,94.25
2023-09-03T06:21:27.978Z,94.08
2023-09-03T06:23:57.255Z,93.66
2023-09-03T06:26:25.244Z,93.53
2023-09-03T06:28:53.222Z,93.67
2023-09-03T06:31:21.072Z,93.31
2023-09-03T06:33:48.928Z,92.93
2023-09-03T06:36:17.772Z,93.00
2023-09-03T06:38:45.807Z,92.74
2023-09-03T06:41:15.163Z,92.46
2023-09-03T06:43:43.082Z,91.92
2023-09-03T06:46:11.070Z,91.84
2023-09-03T06:48:38.919Z,91.89
2023-09-03T06:51:07.022Z,91.96
2023-09-03T06:53:34.878Z,92.51
2023-09-03T06:56:02.953Z,92.55
2023-09-03T06:58:32.540Z,92.84
2023-09-03T07:01:01.085Z,91.74
2023-09-03T07:03:30.058Z,91.04
2023-09-03T07:05:58.101Z,91.09
2023-09-03T07:08:26.242Z,91.23
2023-09-03T07:11:00.581Z,91.30
2023-09-03T07:13:28.999Z,91.96
2023-09-03T07:15:58.342Z,91.92
2023-09-03T07:18:26.595Z,92.08
2023-09-03T07:21:05.103Z,92.26
2023-09-03T07:23:33.721Z,92.29
2023-09-03T07:26:07.267Z,92.37
2023-09-03T07:28:35.816Z,91.86
2023-09-03T07:31:05.514Z,92.16
2023-09-03T07:33:34.577Z,92.16
2023-09-03T07:36:02.544Z,91.65
2023-09-03T07:38:31.781Z,91.45
2023-09-03T07:40:59.838Z,91.07
2023-09-03T07:43:27.857Z,91.92
2023-09-03T07:45:55.981Z,91.19
2023-09-03T07:48:25.342Z,90.58
2023-09-03T07:50:54.083Z,90.10
2023-09-03T07:53:22.453Z,90.66
2023-09-03T07:55:50.880Z,90.97
2023-09-03T07:58:19.015Z,90.48
2023-09-03T08:00:47.367Z,91.11
2023-09-03T08:03:15.604Z,91.40
2023-09-03T08:05:44.995Z,90.76
2023-09-03T08:08:13.130Z,91.35
2023-09-03T08:10:41.253Z,91.19
2023-09-03T08:13:09.555Z,91.24
2023-09-03T08:15:44.562Z,90.85
2023-09-03T08:18:13.358Z,90.72
2023-09-03T08:20:42.465Z,91.18
2023-09-03T08:23:13.884Z,91.62
2023-09-03T08:25:42.934Z,90.70
2023-09-03T08:28:12.161Z,91.66
2023-09-03T08:30:40.417Z,91.45
2023-09-03T08:33:08.581Z,89.24
2023-09-03T08:35:38.281Z,89.86
2023-09-03T08:38:06.622Z,88.78
2023-09-03T08:40:37.741Z,88.75
2023-09-03T08:43:08.321Z,87.48
2023-09-03T08:45:49.841Z,88.05
2023-09-03T08:48:18.950Z,86.79
2023-09-03T08:50:47.110Z,84.93
2023-09-03T08:53:16.907Z,84.14
2023-09-03T08:55:46.438Z,82.98
2023-09-03T08:58:16.607Z,82.24
2023-09-03T09:00:44.967Z,82.67
2023-09-03T09:03:15.381Z,82.02
2023-09-03T09:05:45.159Z,82.72
2023-09-03T09:08:15.566Z,81.65
2023-09-03T09:10:48.425Z,79.63
2023-09-03T09:13:22.807Z,75.03
2023-09-03T09:15:51.538Z,77.19
2023-09-03T09:18:20.080Z,76.89
2023-09-03T09:20:49.077Z,77.18
2023-09-03T09:23:23.162Z,74.73
2023-09-03T09:25:52.564Z,75.80
2023-09-03T09:28:23.001Z,74.79
2023-09-03T09:30:56.391Z,74.05
2023-09-03T09:33:25.229Z,73.19
2023-09-03T09:35:55.036Z,73.82
2023-09-03T09:38:36.911Z,74.13
2023-09-03T09:41:22.568Z,72.45
2023-09-03T09:43:52.464Z,71.18
2023-09-03T09:46:28.046Z,71.42
2023-09-03T09:48:57.404Z,71.92
2023-09-03T09:51:25.768Z,64.90
2023-09-03T09:53:57.914Z,67.55
2023-09-03T09:56:30.302Z,68.04
2023-09-03T09:59:00.486Z,68.72
2023-09-03T10:01:42.928Z,66.92
2023-09-03T10:04:11.359Z,67.52
2023-09-03T10:06:48.086Z,67.96
2023-09-03T10:09:16.206Z,67.11
2023-09-03T10:11:44.214Z,63.36
2023-09-03T10:14:13.542Z,64.85
2023-09-03T10:16:41.720Z,63.60
2023-09-03T10:19:16.286Z,64.19
2023-09-03T10:21:53.163Z,63.30
2023-09-03T10:24:23.276Z,62.18
2023-09-03T10:26:55.833Z,60.50
2023-09-03T10:29:29.863Z,61.77
2023-09-03T10:32:01.152Z,64.13
2023-09-03T10:34:31.294Z,63.81
2023-09-03T10:37:11.423Z,65.48
2023-09-03T10:39:41.842Z,66.24
2023-09-03T10:42:30.282Z,65.42
2023-09-03T10:45:01.786Z,64.90
2023-09-03T10:47:30.907Z,64.55
2023-09-03T10:49:58.880Z,65.91
2023-09-03T10:52:36.313Z,64.68
2023-09-03T10:55:19.415Z,64.48
2023-09-03T10:57:48.516Z,64.52
2023-09-03T11:00:22.084Z,63.54
2023-09-03T11:02:51.499Z,63.76
2023-09-03T11:05:25.675Z,63.59
2023-09-03T11:08:30.649Z,63.97
2023-09-03T11:10:59.321Z,62.46
2023-09-03T11:13:38.263Z,63.80
2023-09-03T11:16:08.291Z,64.70
2023-09-03T11:18:36.599Z,64.12
2023-09-03T11:21:04.694Z,63.01
2023-09-03T11:23:36.689Z,62.94
2023-09-03T11:26:07.124Z,62.89
2023-09-03T11:28:38.603Z,63.88
2023-09-03T11:31:08.398Z,63.14
2023-09-03T11:33:36.468Z,63.50
2023-09-03T11:36:04.749Z,62.09
2023-09-03T11:38:34.609Z,62.28
2023-09-03T11:41:04.062Z,61.78
2023-09-03T11:43:37.072Z,62.51
2023-09-03T11:46:14.532Z,62.38
2023-09-03T11:48:43.492Z,62.27
2023-09-03T11:51:12.141Z,62.96
2023-09-03T11:53:43.679Z,61.63
2023-09-03T11:56:17.615Z,63.25
2023-09-03T11:58:47.182Z,62.88
2023-09-03T12:01:18.513Z,59.80
2023-09-03T12:03:46.982Z,61.47
2023-09-03T12:06:15.964Z,60.16
2023-09-03T12:08:44.372Z,60.78
2023-09-03T12:11:13.115Z,60.40
2023-09-03T12:13:42.273Z,60.34
2023-09-03T12:16:12.670Z,59.97
2023-09-03T12:18:56.385Z,60.83
2023-09-03T12:21:33.831Z,59.57
2023-09-03T12:24:04.857Z,61.46
2023-09-03T12:26:34.007Z,60.75
2023-09-03T12:29:02.598Z,60.39
2023-09-03T12:31:41.532Z,59.36
2023-09-03T12:34:11.325Z,59.19
2023-09-03T12:36:55.225Z,60.51
2023-09-03T12:39:30.551Z,59.09
2023-09-03T12:41:58.828Z,60.39
2023-09-03T12:44:28.670Z,60.51
2023-09-03T12:46:56.938Z,57.92
2023-09-03T12:49:27.653Z,59.85
2023-09-03T12:51:56.844Z,58.74
2023-09-03T12:54:24.888Z,58.49
2023-09-03T12:56:54.856Z,58.91
2023-09-03T12:59:23.429Z,60.22
2023-09-03T13:01:51.627Z,58.43
2023-09-03T13:04:19.827Z,58.55
2023-09-03T13:06:49.419Z,58.25
2023-09-03T13:09:17.565Z,58.46
2023-09-03T13:11:45.590Z,57.95
2023-09-03T13:14:13.579Z,58.01
2023-09-03T13:16:41.674Z,57.91
2023-09-03T13:19:09.625Z,59.17
2023-09-03T13:21:38.633Z,57.20
2023-09-03T13:24:08.549Z,56.08
2023-09-03T13:26:37.424Z,55.39
2023-09-03T13:29:05.751Z,55.31
2023-09-03T13:31:33.900Z,57.63
2023-09-03T13:34:02.046Z,56.78
2023-09-03T13:36:30.449Z,57.34
2023-09-03T13:38:58.477Z,57.50
2023-09-03T13:41:28.398Z,57.54
2023-09-03T13:43:56.839Z,57.79
2023-09-03T13:46:25.109Z,57.68
2023-09-03T13:48:53.248Z,56.00
2023-09-03T13:51:21.799Z,56.41
2023-09-03T13:53:54.519Z,57.29
2023-09-03T13:56:22.564Z,56.96
2023-09-03T13:58:51.894Z,56.25
2023-09-03T14:01:22.313Z,56.68
2023-09-03T14:03:51.260Z,56.72
2023-09-03T14:06:20.792Z,56.55
2023-09-03T14:08:48.950Z,57.40
2023-09-03T14:11:17.534Z,56.24
2023-09-03T14:13:48.261Z,53.66
2023-09-03T14:16:17.936Z,54.14
2023-09-03T14:18:46.465Z,54.33
2023-09-03T14:21:14.597Z,53.51
2023-09-03T14:23:42.562Z,52.64
2023-09-03T14:26:14.894Z,54.81
2023-09-03T14:28:42.877Z,56.11
2023-09-03T14:31:10.940Z,55.54
2023-09-03T14:33:40.372Z,55.74
2023-09-03T14:39:04.394Z,53.28
2023-09-03T14:41:32.474Z,53.52
2023-09-03T14:44:00.633Z,55.43
2023-09-03T14:46:28.674Z,55.24
2023-09-03T14:49:22.353Z,55.16
2023-09-03T14:51:55.480Z,55.43
2023-09-03T14:55:05.252Z,55.53
2023-09-03T14:57:54.277Z,52.82
2023-09-03T15:00:48.968Z,52.99
2023-09-03T15:17:16.073Z,52.98
2023-09-03T15:19:46.604Z,52.91
2023-09-03T15:22:14.751Z,52.26
2023-09-03T15:24:42.763Z,51.69
2023-09-03T15:27:10.856Z,53.00
2023-09-03T15:29:38.900Z,53.30
2023-09-03T15:32:07.501Z,52.24
2023-09-03T15:34:41.021Z,52.68
2023-09-03T15:37:09.072Z,52.91
2023-09-03T15:39:37.119Z,52.61
2023-09-03T15:42:05.971Z,52.78
2023-09-03T15:44:33.980Z,52.19
2023-09-03T15:47:02.010Z,52.03
2023-09-03T15:49:30.054Z,52.39
2023-09-03T15:51:59.376Z,52.72
2023-09-03T15:54:30.135Z,52.56
2023-09-03T15:56:58.262Z,53.28
2023-09-03T15:59:27.266Z,54.17
2023-09-03T16:01:55.530Z,53.20
2023-09-03T16:04:23.857Z,53.27
2023-09-03T16:06:51.854Z,53.56
2023-09-03T16:09:21.499Z,53.48
2023-09-03T16:11:49.626Z,52.98
2023-09-03T16:14:17.651Z,52.22
2023-09-03T16:16:45.663Z,51.42
2023-09-03T16:19:13.633Z,51.09
2023-09-03T16:21:41.719Z,51.14
2023-09-03T16:24:09.787Z,51.02
2023-09-03T16:26:39.180Z,50.47
2023-09-03T16:29:10.123Z,51.06
2023-09-03T16:31:38.281Z,50.05
2023-09-03T16:34:07.921Z,51.13
2023-09-03T16:36:37.140Z,50.38
2023-09-03T16:39:06.122Z,51.18
2023-09-03T16:41:36.508Z,51.63
2023-09-03T16:44:06.437Z,51.90
2023-09-03T16:46:34.504Z,52.73
2023-09-03T16:49:02.565Z,52.84
2023-09-03T16:51:31.509Z,53.60
2023-09-03T16:53:59.473Z,53.32
2023-09-03T16:56:27.473Z,53.71
2023-09-03T16:58:55.576Z,54.58
2023-09-03T17:01:25.343Z,54.99
2023-09-03T17:03:55.423Z,54.56
2023-09-03T17:06:23.690Z,54.12
2023-09-03T17:08:52.120Z,54.84
2023-09-03T17:11:20.159Z,55.62
2023-09-03T17:13:48.222Z,55.71
2023-09-03T17:16:16.677Z,55.88
2023-09-03T17:18:46.373Z,56.57
2023-09-03T17:21:15.060Z,56.51
2023-09-03T17:23:43.065Z,56.64
2023-09-03T17:26:24.932Z,56.93
2023-09-03T17:28:58.745Z,57.33
2023-09-03T17:31:30.938Z,57.30
2023-09-03T17:34:01.324Z,58.51
2023-09-03T17:36:29.926Z,59.22
2023-09-03T17:38:58.403Z,59.95
2023-09-03T17:41:26.682Z,60.77
2023-09-03T17:43:56.851Z,61.25
2023-09-03T17:46:25.081Z,60.89
2023-09-03T17:48:53.285Z,61.63
2023-09-03T17:51:22.996Z,62.09
2023-09-03T17:53:51.478Z,62.62
2023-09-03T17:56:19.660Z,63.44
2023-09-03T17:58:52.260Z,66.04
2023-09-03T18:01:20.806Z,65.99
2023-09-03T18:03:49.275Z,67.27
2023-09-03T18:06:17.443Z,66.46
2023-09-03T18:08:47.115Z,66.85
2023-09-03T18:11:17.015Z,66.76
2023-09-03T18:15:13.486Z,66.71
2023-09-03T18:18:05.301Z,67.00
2023-09-03T18:20:33.604Z,67.55
2023-09-03T18:23:01.770Z,67.89
2023-09-03T18:25:31.660Z,68.52
2023-09-03T18:27:59.967Z,68.41
2023-09-03T18:30:29.246Z,68.62
2023-09-03T18:33:00.631Z,68.96
2023-09-03T18:35:28.942Z,69.42
2023-09-03T18:37:59.549Z,69.61
2023-09-03T18:40:45.214Z,70.31
2023-09-03T18:43:16.839Z,70.14
2023-09-03T18:45:45.152Z,70.61
2023-09-03T18:48:21.210Z,70.26
2023-09-03T18:50:56.047Z,70.23
2023-09-03T18:53:32.462Z,70.34
2023-09-03T18:56:05.528Z,71.03
2023-09-03T18:58:35.688Z,70.78
2023-09-03T19:01:07.800Z,70.92
2023-09-03T19:03:36.421Z,71.24
2023-09-03T19:06:07.529Z,71.21
2023-09-03T19:08:35.951Z,71.75
2023-09-03T19:11:04.216Z,71.88
2023-09-03T19:13:32.355Z,72.39
2023-09-03T19:16:02.511Z,72.13
2023-09-03T19:18:35.186Z,72.08
2023-09-03T19:21:03.487Z,71.92
2023-09-03T19:23:32.406Z,72.13
2023-09-03T19:26:00.514Z,72.06
2023-09-03T19:28:31.097Z,72.29
2023-09-03T19:30:59.788Z,73.01
2023-09-03T19:33:29.357Z,73.47
2023-09-03T19:35:58.585Z,73.64
2023-09-03T19:38:27.940Z,73.45
2023-09-03T19:40:56.226Z,73.31
2023-09-03T19:43:24.780Z,73.04
2023-09-03T19:45:54.829Z,73.75
2023-09-03T19:48:24.564Z,73.89
2023-09-03T19:50:55.230Z,73.64
2023-09-03T19:53:23.586Z,73.53
2023-09-03T19:55:51.657Z,73.66
2023-09-03T19:58:20.837Z,73.88
2023-09-03T20:00:50.576Z,73.65
2023-09-03T20:03:18.719Z,73.81
2023-09-03T20:05:56.579Z,74.02
2023-09-03T20:08:26.165Z,74.01
2023-09-03T20:10:55.604Z,73.74
2023-09-03T20:13:23.617Z,74.46
2023-09-03T20:15:58.368Z,74.30
2023-09-03T20:18:26.996Z,74.38
2023-09-03T20:20:55.354Z,74.70
2023-09-03T20:23:25.640Z,74.18
2023-09-03T20:26:01.346Z,74.45
2023-09-03T20:28:45.277Z,75.26
2023-09-03T20:31:14.958Z,76.00
2023-09-03T20:33:43.319Z,76.12
2023-09-03T20:36:11.583Z,76.98
2023-09-03T20:38:41.527Z,76.36
2023-09-03T20:41:10.386Z,76.63
2023-09-03T20:43:38.660Z,75.70
2023-09-03T20:46:06.952Z,75.63
2023-09-03T20:48:35.004Z,75.43
2023-09-03T20:51:04.075Z,75.73
2023-09-03T20:53:32.892Z,77.03
2023-09-03T20:56:02.488Z,77.48
2023-09-03T20:58:30.560Z,77.62
2023-09-03T21:00:58.812Z,78.30
2023-09-03T21:03:27.709Z,78.27
2023-09-03T21:05:56.779Z,78.41
2023-09-03T21:08:26.373Z,78.52
2023-09-03T21:10:57.984Z,78.48
2023-09-03T21:13:28.773Z,78.67
2023-09-03T21:15:58.073Z,78.93
2023-09-03T21:18:28.020Z,79.09
2023-09-03T21:21:01.625Z,79.46
2023-09-03T21:23:30.913Z,79.89
2023-09-03T21:25:59.048Z,80.50
2023-09-03T21:28:28.636Z,80.34
2023-09-03T21:30:56.812Z,80.88
2023-09-03T21:33:24.823Z,80.75
2023-09-03T21:35:52.802Z,80.90
2023-09-03T21:38:21.313Z,80.58
2023-09-03T21:40:49.837Z,80.95
2023-09-03T21:43:18.048Z,81.16
2023-09-03T21:45:47.480Z,81.00
2023-09-03T21:48:15.494Z,80.82
2023-09-03T21:50:43.516Z,81.07
2023-09-03T21:53:11.561Z,81.36
2023-09-03T21:55:40.064Z,81.48
2023-09-03T21:58:08.181Z,81.73
2023-09-03T22:00:36.217Z,81.82
2023-09-03T22:03:05.872Z,81.99
2023-09-03T22:05:36.392Z,81.82
2023-09-03T22:08:05.705Z,82.27
2023-09-03T22:10:33.778Z,82.38
2023-09-03T22:13:03.678Z,82.08
2023-09-03T22:15:32.160Z,82.34
2023-09-03T22:18:00.254Z,82.59
2023-09-03T22:20:29.699Z,82.82
2023-09-03T22:22:57.781Z,83.06
2023-09-03T22:25:25.872Z,82.91
2023-09-03T22:27:54.419Z,83.04
2023-09-03T22:30:22.491Z,83.09
2023-09-03T22:32:50.500Z,83.55
2023-09-03T22:35:18.688Z,83.06
2023-09-03T22:37:48.684Z,83.05
2023-09-03T22:40:17.078Z,83.68
2023-09-03T22:42:45.205Z,83.38
2023-09-03T22:45:13.702Z,83.49
2023-09-03T22:47:42.351Z,83.61
2023-09-03T22:50:11.143Z,83.94
2023-09-03T22:52:39.139Z,84.25
2023-09-03T22:55:09.234Z,84.27
2023-09-03T22:57:37.345Z,84.44
2023-09-03T23:00:07.145Z,84.42
2023-09-03T23:02:35.245Z,84.42
2023-09-03T23:05:03.712Z,84.87
2023-09-03T23:07:32.040Z,85.01
2023-09-03T23:10:02.331Z,85.21
2023-09-03T23:12:31.831Z,85.10
2023-09-03T23:15:01.069Z,85.42
2023-09-03T23:17:30.012Z,85.64
2023-09-03T23:19:59.688Z,85.59
2023-09-03T23:22:29.396Z,85.23
2023-09-03T23:24:57.752Z,85.84
2023-09-03T23:27:25.833Z,85.42
2023-09-03T23:29:55.235Z,85.75
2023-09-03T23:32:23.780Z,85.57
2023-09-03T23:34:51.982Z,85.40
2023-09-03T23:37:20.258Z,85.41
2023-09-03T23:39:48.462Z,86.00
2023-09-03T23:42:16.502Z,86.24
2023-09-03T23:44:44.692Z,86.47
2023-09-03T23:47:16.161Z,86.35
2023-09-03T23:49:45.819Z,86.40
2023-09-03T23:52:14.051Z,86.36
2023-09-03T23:54:42.124Z,86.60
2023-09-03T23:57:10.217Z,86.55
2023-09-03T23:59:38.200Z,87.26
